Destinations Il Caravaggio International Airport

Il Caravaggio International Airport (LIME / BGY)

Flights to Il Caravaggio International Airport

Flight number From ETE Dispatch
SPY-2242 EGFF Cardiff International Airport 02:05
SPY-4124 LIRN Naples International Airport 01:40
SPY-416 EHGG Groningen Airport Eelde 01:50

Flights from Il Caravaggio International Airport

Flight number To ETE Dispatch
SPY-2243 EGFF Cardiff International Airport 02:05
SPY-4125 LIRN Naples International Airport 01:35
SPY-417 EHGG Groningen Airport Eelde 01:37
About

Il Caravaggio International Airport facts

Il Caravaggio International Airport is located in Bergamo at an elevation of 238.4 meters or 782 feet.

Currently, Speedy Airlines serves 6 flights to and from Il Caravaggio International Airport.

Detailed airport info

Route map

Weather

Current weather

METAR

METAR

Metar data retrieved Sunday, 21 July 2024 at 19:55 UTC

LIME 211920Z 34005KT 9999 BKN080 28/19 Q1010 NOSIG
Wind Temperature
5 kt 28c